»·PEaware :: WAT169 KSLC-KDEN

WAT169 :: KSLC-KDEN

FLIGHT INFORMATION

Flight Status: Arrived
Operator:
Walker Air Transport
More flights by this operator :: More flights under this callsign
Pilot: Marty P. (27464)
Aircraft: BOEING 737-800
(B738)
More flights by this aircraft type
Origin: KSLC Salt Lake City Intl
United States
Destination: KDEN Denver Intl
United States
More flights between these airports :: More routes between these airports
Route: RUGGD1 PERTY KAMPR LONGZ1
File this flight plan on PilotEdge
Remarks:
Altitude:
(Current/Filed)
35,000ft
Speed:
(Current/Filed)
480kts
Departed: 19-Oct-20 06:22 PM
Arrived: 19-Oct-20 07:16 PM
Distance/Time
Traveled:
338nm/0:54
Distance/Time
To Go:
Arrived

Flight Plot

Page will automatically refresh every two minutes.

Flight plan parsing failed; only flown route is shown


Map Options




Map Legend


Flown Route
Filed Route
Departure Airport
Arrival Airport
Navaid (VOR, NDB)
Fix

Horizontal Profiles

Position Reports

Time Latitude Longitude Heading Altitude Ground
Speed
19-Oct-20 18:01 40.788529 -111.980852 282 4226ft 0kts
19-Oct-20 18:02 40.788529 -111.980852 282 4226ft 0kts
19-Oct-20 18:03 40.788529 -111.980852 282 4226ft 0kts
19-Oct-20 18:04 40.788529 -111.980852 282 4226ft 0kts
19-Oct-20 18:05 40.788529 -111.980852 282 4226ft 0kts
19-Oct-20 18:06 40.788529 -111.980852 282 4226ft 0kts
19-Oct-20 18:07 40.788529 -111.980852 282 4226ft 0kts
19-Oct-20 18:08 40.788529 -111.980852 282 4226ft 0kts
19-Oct-20 18:09 40.788426 -111.980633 286 4226ft 2kts
19-Oct-20 18:10 40.788252 -111.979901 314 4226ft 2kts
19-Oct-20 18:11 40.787906 -111.979712 4 4226ft 3kts
19-Oct-20 18:12 40.788844 -111.979538 8 4226ft 0kts
19-Oct-20 18:13 40.788844 -111.979538 8 4226ft 0kts
19-Oct-20 18:14 40.788987 -111.979510 10 4226ft 0kts
19-Oct-20 18:15 40.788987 -111.979510 10 4226ft 0kts
19-Oct-20 18:16 40.790575 -111.977290 24 4225ft 12kts
19-Oct-20 18:17 40.795867 -111.977767 354 4226ft 19kts
19-Oct-20 18:18 40.802366 -111.978529 354 4232ft 22kts
19-Oct-20 18:19 40.807161 -111.978842 35 4229ft 6kts
19-Oct-20 18:20 40.806083 -111.976779 174 4230ft 17kts
19-Oct-20 18:21 40.779953 -111.973956 176 4790ft 165kts
19-Oct-20 18:22 40.741359 -111.975785 262 6590ft 206kts
19-Oct-20 18:23 40.771996 -112.049844 306 8772ft 255kts
19-Oct-20 18:24 40.814913 -112.124838 306 10014ft 251kts
19-Oct-20 18:25 40.873324 -112.163438 8 12762ft 271kts
19-Oct-20 18:26 40.945199 -112.108699 27 14500ft 341kts
19-Oct-20 18:27 41.026147 -112.020781 60 16243ft 416kts
19-Oct-20 18:28 41.020182 -111.864223 100 18895ft 446kts
19-Oct-20 18:29 40.995307 -111.701223 100 21286ft 460kts
19-Oct-20 18:30 40.969614 -111.533034 100 23431ft 473kts
19-Oct-20 18:31 40.943175 -111.360213 99 25311ft 486kts
19-Oct-20 18:32 40.916092 -111.182494 100 27031ft 497kts
19-Oct-20 18:33 40.888969 -111.004618 99 29044ft 495kts
19-Oct-20 18:34 40.861737 -110.826273 99 30854ft 495kts
19-Oct-20 18:35 40.834124 -110.645487 99 31867ft 511kts
19-Oct-20 18:36 40.805686 -110.459389 99 32792ft 525kts
19-Oct-20 18:37 40.776930 -110.270945 99 34219ft 523kts
19-Oct-20 18:38 40.748351 -110.082789 99 35084ft 532kts
19-Oct-20 18:39 40.731002 -109.886013 91 35081ft 550kts
19-Oct-20 18:40 40.718409 -109.682971 92 35081ft 562kts
19-Oct-20 18:41 40.704528 -109.477194 92 35081ft 566kts
19-Oct-20 18:42 40.690051 -109.270281 93 35081ft 566kts
19-Oct-20 18:43 40.675273 -109.064467 93 35081ft 566kts
19-Oct-20 18:44 40.661088 -108.857801 92 35083ft 566kts
19-Oct-20 18:45 40.647518 -108.650923 92 35093ft 567kts
19-Oct-20 18:46 40.633833 -108.445043 92 35135ft 567kts
19-Oct-20 18:47 40.619822 -108.238009 93 35136ft 567kts
19-Oct-20 18:48 40.605440 -108.031195 93 35125ft 567kts
19-Oct-20 18:49 40.590683 -107.824739 93 35120ft 567kts
19-Oct-20 18:50 40.575165 -107.618400 94 35117ft 567kts
19-Oct-20 18:51 40.558647 -107.412693 93 35128ft 567kts
19-Oct-20 18:52 40.542990 -107.209916 94 34330ft 539kts
19-Oct-20 18:53 40.527969 -107.017198 94 32155ft 534kts
19-Oct-20 18:54 40.512410 -106.821911 94 29986ft 537kts
19-Oct-20 18:55 40.496482 -106.626338 94 27985ft 541kts
19-Oct-20 18:56 40.479122 -106.429814 95 26746ft 550kts
19-Oct-20 18:57 40.460951 -106.234186 95 24728ft 527kts
19-Oct-20 18:58 40.443945 -106.045204 95 22785ft 516kts
19-Oct-20 18:59 40.424054 -105.862459 100 20885ft 492kts
19-Oct-20 19:00 40.398126 -105.696094 100 19410ft 443kts
19-Oct-20 19:02 40.373064 -105.538489 100 18082ft 445kts
19-Oct-20 19:03 40.348008 -105.382694 101 16030ft 417kts
19-Oct-20 19:04 40.328954 -105.245751 99 16039ft 355kts
19-Oct-20 19:05 40.311532 -105.116494 99 14309ft 363kts
19-Oct-20 19:06 40.293977 -104.988089 100 13004ft 331kts
19-Oct-20 19:07 40.278933 -104.880057 100 12183ft 298kts
19-Oct-20 19:08 40.264234 -104.776870 106 10999ft 283kts
19-Oct-20 19:09 40.225633 -104.696102 151 10029ft 257kts
19-Oct-20 19:10 40.165109 -104.683934 183 9998ft 211kts
19-Oct-20 19:11 40.105329 -104.684463 184 9577ft 216kts
19-Oct-20 19:12 40.048750 -104.685096 182 8468ft 199kts
19-Oct-20 19:13 39.992728 -104.685728 182 7347ft 203kts
19-Oct-20 19:14 39.943369 -104.686294 182 6383ft 167kts
19-Oct-20 19:15 39.897134 -104.686809 182 5487ft 165kts
19-Oct-20 19:16 39.867329 -104.687200 180 5444ft 39kts
19-Oct-20 19:17 39.864259 -104.683388 90 5444ft 15kts
19-Oct-20 19:18 39.864136 -104.677928 112 5444ft 5kts
19-Oct-20 19:19 39.863577 -104.677843 180 5444ft 0kts
19-Oct-20 19:20 39.863577 -104.677843 180 5444ft 0kts
19-Oct-20 19:20 39.863577 -104.677843 180 5444ft 0kts
19-Oct-20 19:22 39.863577 -104.677843 180 5444ft 0kts
19-Oct-20 19:22 39.863577 -104.677843 180 5444ft 0kts
19-Oct-20 19:24 39.863577 -104.677843 180 5444ft 0kts
19-Oct-20 19:24 39.863577 -104.677843 180 5444ft 0kts

Navigation Log

Ident Type
Flight plan parsing failed, navigation log unavailable